Latest Weather Observations for Khancoban

IDN60801

Issued at 10:34 am EST Thursday 25 August 2016 (issued every 30 minutes, with the page automatically refreshed every 10 minutes)

About weather observations | Map of weather stations | Latest weather observations for NSW | Other Formats
Station Details ID: 072162 Name: KHANCOBAN AWS Lat: -36.23 Lon: 148.14 Height: 339.3 m
Data from the previous 72 hours. | See also: Recent months at Khancoban
Date/Time
EST
Temp
°C
App
Temp
°C
Dew
Point
°C
Rel
Hum
%
Delta-T
°C
Wind Press
QNH
hPa
Press
MSL
hPa
Rain since
9am
mm
Dir  Spd
km/h
Gust
km/h
Spd
kts
Gust
kts
25/10:30am 7.0 6.1 5.9 93 0.5 CALM 0 0 0 0 1012.9 1013.4 0.0
25/10:00am 5.2 4.1 5.1 99 0.0 CALM 0 6 0 3 1013.1 1013.6 0.0
25/09:30am 4.8 3.6 4.8 100 0.0 CALM 0 6 0 3 1013.2 1013.7 0.0
25/09:00am 3.5 2.1 3.5 100 0.0 CALM 0 0 0 0 1013.1 1013.6 0.0
25/08:30am 2.7 1.1 2.7 100 0.0 CALM 0 0 0 0 1013.1 1013.6 0.0
25/08:00am 2.4 -0.3 2.4 100 0.0 S 6 7 3 4 1012.8 1013.3 0.0
25/07:30am 0.9 -0.9 0.9 100 0.0 CALM 0 2 0 1 1012.6 1013.1 0.0
25/07:00am 0.6 -1.3 0.6 100 0.0 CALM 0 0 0 0 1012.2 1012.6 0.0
25/06:30am 1.2 -1.7 1.2 100 0.0 SE 6 7 3 4 1011.8 1012.3 0.0
25/06:00am 1.6 -0.9 1.6 100 0.0 SSE 4 7 2 4 1011.4 1011.9 0.0
25/05:30am 1.4 -1.1 1.4 100 0.0 SE 4 7 2 4 1011.1 1011.6 0.0
25/05:00am 1.9 -0.2 1.9 100 0.0 SSW 2 7 1 4 1010.9 1011.4 0.0
25/04:30am 1.9 0.2 1.9 100 0.0 CALM 0 0 0 0 1010.6 1011.1 0.0
25/04:00am 2.1 0.4 2.1 100 0.0 CALM 0 0 0 0 1010.6 1011.1 0.0
25/03:30am 3.0 1.5 3.0 100 0.0 CALM 0 0 0 0 1010.7 1011.2 0.0
25/03:00am 3.2 1.7 3.2 100 0.0 CALM 0 0 0 0 1010.9 1011.4 0.0
25/02:30am 3.0 1.5 3.0 100 0.0 CALM 0 0 0 0 1010.9 1011.4 0.0
25/02:00am 3.3 1.9 3.3 100 0.0 CALM 0 0 0 0 1010.9 1011.4 0.0
25/01:30am 3.6 2.2 3.6 100 0.0 CALM 0 0 0 0 1011.1 1011.6 0.0
25/01:00am 3.3 1.9 3.3 100 0.0 CALM 0 0 0 0 1011.0 1011.5 0.0
25/12:30am 4.4 3.2 4.4 100 0.0 CALM 0 0 0 0 1010.9 1011.4 0.0
25/12:00am 4.2 2.9 4.2 100 0.0 CALM 0 0 0 0 1010.8 1011.3 0.0
 
Date/Time
EST
Temp
°C
App
Temp
°C
Dew
Point
°C
Rel
Hum
%
Delta-T
°C
Wind Press
QNH
hPa
Press
MSL
hPa
Rain since
9am
mm
Dir  Spd
km/h
Gust
km/h
Spd
kts
Gust
kts
24/11:30pm 4.3 3.0 4.3 100 0.0 CALM 0 0 0 0 1010.7 1011.2 0.0
24/11:00pm 5.2 4.1 5.2 100 0.0 CALM 0 0 0 0 1010.6 1011.1 0.0
24/10:30pm 5.9 5.0 5.9 100 0.0 CALM 0 2 0 1 1010.9 1011.4 0.0
24/10:00pm 6.6 4.7 6.6 100 0.0 NE 6 9 3 5 1011.1 1011.6 0.0
24/09:30pm 6.6 5.8 6.6 100 0.0 CALM 0 0 0 0 1011.3 1011.8 0.0
24/09:00pm 7.0 5.9 7.0 100 0.0 S 2 6 1 3 1011.1 1011.6 0.0
24/08:30pm 7.2 6.6 7.2 100 0.0 CALM 0 6 0 3 1011.1 1011.6 0.0
24/08:00pm 7.2 6.6 7.2 100 0.0 CALM 0 0 0 0 1011.1 1011.6 0.0
24/07:30pm 7.2 5.8 7.2 100 0.0 NNE 4 6 2 3 1010.9 1011.4 0.0
24/07:00pm 7.3 5.3 7.3 100 0.0 NNE 7 9 4 5 1010.5 1011.0 0.0
24/06:30pm 7.7 7.2 7.7 100 0.0 CALM 0 6 0 3 1010.3 1010.8 0.0
24/06:00pm 8.0 6.8 7.9 99 0.0 SW 4 7 2 4 1010.2 1010.7 0.0
24/05:30pm 8.4 7.5 7.8 96 0.3 WNW 2 7 1 4 1010.4 1010.9 0.0
24/05:00pm 8.6 8.1 7.8 95 0.4 CALM 0 0 0 0 1010.2 1010.7 0.0
24/04:30pm 8.8 7.1 8.2 96 0.3 WNW 7 11 4 6 1010.5 1011.0 0.0
24/04:00pm 8.9 7.6 7.5 91 0.7 WNW 4 6 2 3 1010.5 1011.0 0.0
24/03:30pm 9.0 7.1 7.5 90 0.7 WNW 7 9 4 5 1010.7 1011.2 0.0
24/03:00pm 9.1 8.3 6.5 84 1.2 CALM 0 0 0 0 1010.7 1011.2 0.0
24/02:30pm 9.3 8.5 6.7 84 1.2 CALM 0 0 0 0 1010.8 1011.3 0.0
24/02:00pm 8.7 7.9 6.3 85 1.1 CALM 0 0 0 0 1011.1 1011.6 0.0
24/01:30pm 8.4 7.3 6.9 90 0.7 SSW 2 7 1 4 1011.5 1012.0 0.0
24/01:00pm 8.1 6.0 6.6 90 0.7 W 7 7 4 4 1011.6 1012.1 0.0
24/12:30pm 7.9 5.7 6.2 89 0.8 SW 7 9 4 5 1012.2 1012.6 0.0
24/12:00pm 7.9 6.3 6.5 91 0.7 SSW 4 7 2 4 1012.6 1013.1 0.0
24/11:30am 7.4 6.1 6.0 91 0.6 NW 2 7 1 4 1013.1 1013.6 0.0
24/11:00am 7.0 5.0 6.3 95 0.3 WNW 6 9 3 5 1013.8 1014.3 0.0
24/10:30am 7.4 6.5 6.2 92 0.6 CALM 0 4 0 2 1014.1 1014.6 0.0
24/10:00am 7.0 4.9 5.6 91 0.6 WNW 6 9 3 5 1014.0 1014.5 0.0
24/09:30am 6.7 5.7 5.8 94 0.4 CALM 0 0 0 0 1014.2 1014.7 0.0
24/09:00am 6.4 5.6 6.3 99 0.0 CALM 0 0 0 0 1014.6 1015.1 0.0
24/08:30am 5.5 3.3 5.5 100 0.0 W 6 9 3 5 1014.7 1015.2 0.0
24/08:00am 4.7 3.5 4.7 100 0.0 CALM 0 0 0 0 1014.8 1015.4 0.0
24/07:30am 3.5 2.1 3.5 100 0.0 CALM 0 0 0 0 1014.9 1015.5 0.0
24/07:00am 3.4 2.0 3.4 100 0.0 CALM 0 0 0 0 1014.7 1015.2 0.0
24/06:30am 3.6 2.2 3.6 100 0.0 CALM 0 0 0 0 1014.8 1015.4 0.0
24/06:00am 3.4 2.0 3.4 100 0.0 CALM 0 0 0 0 1015.0 1015.6 0.0
24/05:30am 3.5 2.1 3.5 100 0.0 CALM 0 0 0 0 1014.8 1015.4 0.0
24/05:00am 3.1 1.2 3.1 100 0.0 SE 2 7 1 4 1014.8 1015.4 0.0
24/04:30am 2.6 0.7 2.6 100 0.0 SSE 2 7 1 4 1014.6 1015.1 0.0
24/04:00am 2.9 1.0 2.9 100 0.0 ENE 2 7 1 4 1014.7 1015.2 0.0
24/03:30am 3.0 0.7 2.9 99 0.0 ENE 4 7 2 4 1014.7 1015.2 0.0
24/03:00am 3.2 1.7 3.1 99 0.0 CALM 0 0 0 0 1015.0 1015.6 0.0
24/02:30am 4.1 2.4 4.0 99 0.0 NE 2 7 1 4 1015.2 1015.7 0.0
24/02:00am 3.9 2.6 3.9 100 0.0 CALM 0 0 0 0 1015.5 1016.0 0.0
24/01:30am 3.9 1.4 3.9 100 0.0 E 6 7 3 4 1016.0 1016.5 0.0
24/01:00am 3.3 1.1 3.3 100 0.0 SSE 4 6 2 3 1016.0 1016.5 0.0
24/12:30am 3.5 2.1 3.5 100 0.0 CALM 0 0 0 0 1016.1 1016.6 0.0
24/12:00am 4.1 2.8 4.1 100 0.0 CALM 0 6 0 3 1016.4 1016.9 0.0
 
Date/Time
EST
Temp
°C
App
Temp
°C
Dew
Point
°C
Rel
Hum
%
Delta-T
°C
Wind Press
QNH
hPa
Press
MSL
hPa
Rain since
9am
mm
Dir  Spd
km/h
Gust
km/h
Spd
kts
Gust
kts
23/11:30pm 4.1 2.8 4.1 100 0.0 CALM 0 0 0 0 1016.7 1017.2 0.0
23/11:00pm 3.8 2.4 3.7 99 0.0 CALM 0 0 0 0 1016.6 1017.1 0.0
23/10:30pm 4.4 3.1 4.3 99 0.0 CALM 0 0 0 0 1016.6 1017.1 0.0
23/10:00pm 4.8 3.6 4.7 99 0.0 CALM 0 0 0 0 1016.4 1016.9 0.0
23/09:30pm 5.2 3.7 5.1 99 0.0 SSE 2 6 1 3 1016.5 1017.0 0.0
23/09:00pm 5.8 4.8 5.7 99 0.0 CALM 0 0 0 0 1016.3 1016.8 0.0
23/08:30pm 6.1 5.1 5.8 98 0.1 CALM 0 0 0 0 1016.1 1016.6 0.0
23/08:00pm 7.2 6.0 6.6 96 0.3 WNW 2 7 1 4 1016.0 1016.5 0.0
23/07:30pm 7.2 6.2 5.8 91 0.6 CALM 0 2 0 1 1015.9 1016.4 0.0
23/07:00pm 7.4 6.0 5.5 88 0.9 S 2 7 1 4 1015.7 1016.2 0.0
23/06:30pm 8.8 6.8 6.1 83 1.3 SSE 6 6 3 3 1015.3 1015.8 0.0
23/06:00pm 9.3 8.5 6.4 82 1.4 CALM 0 0 0 0 1014.9 1015.5 0.0
23/05:30pm 10.8 8.8 6.9 77 1.9 NNE 7 13 4 7 1015.0 1015.6 0.0
23/05:00pm 12.4 10.6 7.1 70 2.6 N 6 7 3 4 1014.9 1015.5 0.0
23/04:30pm 13.2 11.7 7.0 66 3.1 NNW 4 7 2 4 1015.2 1015.7 0.0
23/04:00pm 13.3 10.7 5.9 61 3.6 NNE 9 13 5 7 1014.6 1015.1 0.0
23/03:30pm 14.0 11.9 5.6 57 4.0 NW 6 9 3 5 1014.2 1014.7 0.0
23/03:00pm 14.0 11.4 5.9 58 3.9 NNW 9 13 5 7 1014.4 1014.9 0.0
23/02:30pm 14.0 10.7 6.6 61 3.6 NNW 13 20 7 11 1014.3 1014.8 0.0
23/02:00pm 13.4 10.1 6.3 62 3.5 NNW 13 19 7 10 1014.2 1014.7 0.0
23/01:30pm 13.7 10.9 8.7 72 2.6 NW 13 17 7 9 1014.6 1015.1 0.0
23/01:00pm 12.9 10.2 9.0 77 2.0 NW 13 17 7 9 1014.7 1015.2 0.0
23/12:30pm 12.1 9.1 9.1 82 1.5 WNW 15 19 8 10 1014.8 1015.4 0.0
23/12:00pm 11.2 8.3 9.5 89 0.9 WNW 15 19 8 10 1015.3 1015.8 0.0
23/11:30am 10.5 7.5 9.4 93 0.6 NW 15 20 8 11 1015.7 1016.2 0.0
23/11:00am 9.9 7.5 8.7 92 0.6 NW 11 15 6 8 1015.6 1016.1 0.0
23/10:30am 9.3 7.7 7.9 91 0.7 NW 6 9 3 5 1015.7 1016.2 0.0
23/10:00am 8.5 7.6 7.7 95 0.4 W 2 9 1 5 1015.6 1016.1 0.0
23/09:30am 7.9 7.4 7.8 99 0.0 CALM 0 0 0 0 1015.8 1016.3 0.0
23/09:00am 6.6 5.4 6.6 100 0.0 NW 2 6 1 3 1016.0 1016.5 2.4
23/08:30am 5.0 3.1 5.0 100 0.0 NW 4 7 2 4 1016.0 1016.5 2.4
23/08:00am 4.7 3.1 4.7 100 0.0 SSW 2 7 1 4 1015.9 1016.4 2.4
23/07:30am 3.8 1.7 3.8 100 0.0 SSW 4 7 2 4 1015.9 1016.4 2.4
23/07:00am 3.6 2.2 3.6 100 0.0 CALM 0 0 0 0 1015.6 1016.1 2.4
23/06:30am 3.4 2.0 3.4 100 0.0 CALM 0 0 0 0 1015.4 1015.9 2.4
23/06:00am 3.4 2.0 3.4 100 0.0 CALM 0 6 0 3 1015.0 1015.6 2.4
23/05:30am 3.7 2.3 3.7 100 0.0 CALM 0 0 0 0 1014.6 1015.1 2.4
23/05:00am 4.3 3.0 4.3 100 0.0 CALM 0 0 0 0 1014.4 1014.9 2.0
23/04:30am 4.3 3.0 4.3 100 0.0 CALM 0 0 0 0 1014.2 1014.7 2.0
23/04:00am 4.4 3.2 4.4 100 0.0 CALM 0 0 0 0 1014.0 1014.5 2.0
23/03:30am 4.6 3.4 4.6 100 0.0 CALM 0 7 0 4 1013.9 1014.4 2.0
23/03:00am 5.3 4.2 5.3 100 0.0 CALM 0 0 0 0 1013.9 1014.4 2.0
23/02:30am 5.4 3.2 5.4 100 0.0 NNE 6 7 3 4 1014.0 1014.5 2.0
23/02:00am 5.2 2.4 5.2 100 0.0 SW 9 11 5 6 1014.1 1014.6 2.0
23/01:30am 5.5 4.5 5.5 100 0.0 CALM 0 0 0 0 1013.9 1014.4 2.0
23/01:00am 5.6 4.6 5.6 100 0.0 CALM 0 0 0 0 1014.0 1014.5 2.0
23/12:30am 5.6 4.6 5.6 100 0.0 CALM 0 0 0 0 1013.9 1014.4 2.0
23/12:00am 5.3 4.2 5.3 100 0.0 CALM 0 0 0 0 1013.9 1014.4 2.0
 
Date/Time
EST
Temp
°C
App
Temp
°C
Dew
Point
°C
Rel
Hum
%
Delta-T
°C
Wind Press
QNH
hPa
Press
MSL
hPa
Rain since
9am
mm
Dir  Spd
km/h
Gust
km/h
Spd
kts
Gust
kts
22/11:30pm 5.6 4.6 5.6 100 0.0 CALM 0 0 0 0 1014.0 1014.5 2.0
22/11:00pm 5.8 4.8 5.8 100 0.0 CALM 0 0 0 0 1014.3 1014.8 2.0
22/10:30pm 5.9 5.0 5.9 100 0.0 CALM 0 0 0 0 1014.3 1014.8 2.0
22/10:00pm 6.0 4.7 6.0 100 0.0 ESE 2 9 1 5 1014.5 1015.0 2.0
22/09:30pm 6.3 5.5 6.3 100 0.0 CALM 0 0 0 0 1014.4 1014.9 2.0
22/09:00pm 6.6 5.4 6.6 100 0.0 NNE 2 6 1 3 1014.2 1014.7 2.0
22/08:30pm 7.1 6.0 7.1 100 0.0 SSE 2 7 1 4 1014.1 1014.6 2.0
22/08:00pm 7.5 6.5 7.5 100 0.0 SSW 2 6 1 3 1014.2 1014.7 2.0
22/07:30pm 7.9 7.4 7.9 100 0.0 CALM 0 0 0 0 1014.2 1014.7 2.0
22/07:00pm 8.0 7.5 8.0 100 0.0 CALM 0 0 0 0 1014.1 1014.6 2.0
22/06:30pm 8.4 7.7 8.4 100 0.0 SW 2 6 1 3 1013.9 1014.4 2.0
22/06:00pm 8.6 8.3 8.6 100 0.0 CALM 0 4 0 2 1014.0 1014.5 2.0
22/05:30pm 8.9 8.3 8.8 99 0.0 SSW 2 6 1 3 1013.8 1014.3 2.0
22/05:00pm 9.0 7.9 8.4 96 0.3 SSW 4 7 2 4 1013.9 1014.4 2.0
22/04:30pm 9.1 7.0 8.3 95 0.4 SSW 9 13 5 7 1013.7 1014.2 2.0
22/04:00pm 9.3 7.3 8.7 96 0.3 SSW 9 11 5 6 1013.8 1014.3 2.0
22/03:30pm 9.3 7.5 7.9 91 0.7 SSW 7 9 4 5 1014.0 1014.5 2.0
22/03:00pm 9.6 8.1 9.1 97 0.3 W 7 9 4 5 1014.2 1014.7 2.0
22/02:30pm 9.6 9.4 9.1 97 0.3 CALM 0 6 0 3 1014.4 1014.9 2.0
22/02:00pm 9.2 9.0 8.9 98 0.1 CALM 0 0 0 0 1014.8 1015.4 2.0
22/01:30pm 9.2 7.9 9.1 99 0.1 W 6 7 3 4 1015.2 1015.7 2.0
22/01:00pm 9.2 7.9 9.1 99 0.1 W 6 9 3 5 1015.5 1016.0 2.0
22/12:30pm 9.6 9.4 9.1 97 0.3 CALM 0 6 0 3 1015.8 1016.3 2.0
22/12:00pm 9.4 9.3 9.3 99 0.1 CALM 0 0 0 0 1016.1 1016.6 2.0
22/11:30am 8.9 8.3 8.8 99 0.0 NNE 2 7 1 4 1016.6 1017.1 1.6
22/11:00am 8.9 7.5 8.9 100 0.0 ENE 6 7 3 4 1016.8 1017.3 1.0

Other Formats:

Comma delimited format used in spreadsheet applications
http://www.bom.gov.au/fwo/IDN60801/IDN60801.94919.axf

JavaScript Object Notation format (JSON) in row-major order
http://www.bom.gov.au/fwo/IDN60801/IDN60801.94919.json